Unicom:                    122.8

AWOS:                  118.275

Elevation           1458’ MSL

TPA:                   2500’ MSL

06/24:         5003’ L   75’ W

PAPI:       06/Left     24/Left

(Operate lights on unicom freq.)

Traffic Pattern: Left

Beacon: Sunset to Sunrise

Windsock: yes, lighted

Segmented Circle: No

 

Cleveland Center: 126.72/291.65

FSS: Altoona

[Source: ADDS]
METAR
KFKL 011456Z AUTO 23005KT 10SM CLR 21/17 A2989 RMK AO2 SLP117 T02060167 58001 =
KFKL 011120Z 0112/0212 00000KT P6SM SKC FM011500 24005KT P6SM BKN040 TEMPO 0119/0123 3SM -TSRA BKN025CB FM012300 31006KT P6SM SKC FM020900 VRB03KT P6SM OVC005
TAF
KFKL 011120Z 0112/0212 00000KT P6SM SKC FM011500 24005KT P6SM BKN040 TEMPO 0119/0123 3SM -TSRA BKN025CB FM012300 31006KT P6SM SKC FM020900 VRB03KT P6SM OVC005 =
[Source: ADDS]
METAR
KDUJ 011453Z AUTO 25007KT 10SM SCT060 22/15 A2989 RMK AO2 SLP113 T02170150 57002 =
KDUJ 011120Z 0112/0212 18004KT P6SM BKN035 TEMPO 0121/0124 2SM -TSRA BKN025CB FM020100 29008KT P6SM SKC FM020900 VRB03KT P6SM OVC006
TAF
KDUJ 011120Z 0112/0212 18004KT P6SM BKN035 TEMPO 0121/0124 2SM -TSRA BKN025CB FM020100 29008KT P6SM SKC FM020900 VRB03KT P6SM OVC006 =

Development areas as listed in the Pennsylvania Department of Transportation,

Bureau of Aviation Airport Properties Directory

 

Area 1 - 7 acre area for development needing access to runway 

Area 2 - 7 acre area for development not needing access to runway

There are several other Industrial Development areas available on the airport, and at other sites with easy access to the airport.

Please contact the Clarion County Airport Authority at (814) 226 - 9993, or manager@clarionairport.com

You can also contact the Clarion County Economic Development Corporation at (814) 226 - 9045.

 

Resourceful Links:

Clarion Chamber of Commerce https://www.clarionpa.com/

Clarion County Economic Development Corporation http://www.callclarionpa.com/